sensor_id;sensor_type;location;lat;lon;timestamp;pressure;altitude;pressure_sealevel;temperature;humidity
79752;BME280;69234;47.446;21.636;2024-02-23T00:00:26;99579.84;;;9.28;74.98
79752;BME280;69234;47.446;21.636;2024-02-23T00:00:57;99583.38;;;9.29;75.45
79752;BME280;69234;47.446;21.636;2024-02-23T00:01:28;99589.56;;;9.29;74.69
79752;BME280;69234;47.446;21.636;2024-02-23T00:01:59;99579.84;;;9.28;74.76
79752;BME280;69234;47.446;21.636;2024-02-23T00:02:31;99583.66;;;9.26;75.23
79752;BME280;69234;47.446;21.636;2024-02-23T00:03:02;99590.69;;;9.27;75.29
79752;BME280;69234;47.446;21.636;2024-02-23T00:03:34;99590.84;;;9.25;75.79
79752;BME280;69234;47.446;21.636;2024-02-23T00:04:06;99592.69;;;9.25;75.01
79752;BME280;69234;47.446;21.636;2024-02-23T00:04:38;99595.94;;;9.28;74.91
79752;BME280;69234;47.446;21.636;2024-02-23T00:05:09;99592.25;;;9.29;74.63
79752;BME280;69234;47.446;21.636;2024-02-23T00:05:40;99586.88;;;9.29;74.36
79752;BME280;69234;47.446;21.636;2024-02-23T00:06:11;99583.50;;;9.27;75.93
79752;BME280;69234;47.446;21.636;2024-02-23T00:06:42;99587.31;;;9.25;75.01
79752;BME280;69234;47.446;21.636;2024-02-23T00:07:13;99586.75;;;9.21;75.33
79752;BME280;69234;47.446;21.636;2024-02-23T00:07:44;99586.44;;;9.24;74.92
79752;BME280;69234;47.446;21.636;2024-02-23T00:08:15;99583.94;;;9.23;75.82
79752;BME280;69234;47.446;21.636;2024-02-23T00:08:46;99596.06;;;9.27;75.98
79752;BME280;69234;47.446;21.636;2024-02-23T00:09:17;99586.44;;;9.24;75.79
79752;BME280;69234;47.446;21.636;2024-02-23T00:09:48;99595.22;;;9.26;75.08
79752;BME280;69234;47.446;21.636;2024-02-23T00:10:19;99590.69;;;9.27;75.16
79752;BME280;69234;47.446;21.636;2024-02-23T00:10:50;99589.84;;;9.26;74.88
79752;BME280;69234;47.446;21.636;2024-02-23T00:11:21;99582.53;;;9.28;74.74
79752;BME280;69234;47.446;21.636;2024-02-23T00:11:52;99580.13;;;9.25;75.28
79752;BME280;69234;47.446;21.636;2024-02-23T00:12:23;99580.97;;;9.26;75.60
79752;BME280;69234;47.446;21.636;2024-02-23T00:12:54;99575.72;;;9.24;75.03
79752;BME280;69234;47.446;21.636;2024-02-23T00:13:26;99585.50;;;9.25;74.58
79752;BME280;69234;47.446;21.636;2024-02-23T00:13:56;99579.97;;;9.27;74.62
79752;BME280;69234;47.446;21.636;2024-02-23T00:14:27;99585.31;;;9.27;74.44
79752;BME280;69234;47.446;21.636;2024-02-23T00:14:59;99579.97;;;9.27;74.36
79752;BME280;69234;47.446;21.636;2024-02-23T00:15:30;99586.16;;;9.27;75.10
79752;BME280;69234;47.446;21.636;2024-02-23T00:16:01;99577.44;;;9.25;75.13
79752;BME280;69234;47.446;21.636;2024-02-23T00:16:38;99582.53;;;9.28;74.28
79752;BME280;69234;47.446;21.636;2024-02-23T00:17:10;99573.50;;;9.29;74.36
79752;BME280;69234;47.446;21.636;2024-02-23T00:17:42;99578.69;;;9.31;74.85
79752;BME280;69234;47.446;21.636;2024-02-23T00:18:13;99581.38;;;9.31;74.13
79752;BME280;69234;47.446;21.636;2024-02-23T00:18:46;99577.28;;;9.27;73.70
79752;BME280;69234;47.446;21.636;2024-02-23T00:19:17;99587.56;;;9.32;74.00
79752;BME280;69234;47.446;21.636;2024-02-23T00:19:50;99575.03;;;9.32;73.94
79752;BME280;69234;47.446;21.636;2024-02-23T00:20:23;99577.56;;;9.34;73.08
79752;BME280;69234;47.446;21.636;2024-02-23T00:20:54;99573.22;;;9.33;74.28
79752;BME280;69234;47.446;21.636;2024-02-23T00:21:27;99574.06;;;9.33;73.93
79752;BME280;69234;47.446;21.636;2024-02-23T00:21:58;99570.94;;;9.28;74.96
79752;BME280;69234;47.446;21.636;2024-02-23T00:22:29;99567.69;;;9.24;74.09
79752;BME280;69234;47.446;21.636;2024-02-23T00:23:02;99578.69;;;9.31;73.89
79752;BME280;69234;47.446;21.636;2024-02-23T00:23:34;99579.69;;;9.30;73.74
79752;BME280;69234;47.446;21.636;2024-02-23T00:24:05;99572.78;;;9.27;73.55
79752;BME280;69234;47.446;21.636;2024-02-23T00:24:36;99585.03;;;9.30;74.14
79752;BME280;69234;47.446;21.636;2024-02-23T00:25:07;99580.69;;;9.29;74.69
79752;BME280;69234;47.446;21.636;2024-02-23T00:25:38;99572.09;;;9.25;73.51
79752;BME280;69234;47.446;21.636;2024-02-23T00:26:09;99583.22;;;9.31;74.66
79752;BME280;69234;47.446;21.636;2024-02-23T00:26:40;99577.16;;;9.28;74.16
79752;BME280;69234;47.446;21.636;2024-02-23T00:27:11;99577.72;;;9.32;73.68
79752;BME280;69234;47.446;21.636;2024-02-23T00:27:42;99577.56;;;9.34;73.53
79752;BME280;69234;47.446;21.636;2024-02-23T00:28:14;99573.22;;;9.33;73.20
79752;BME280;69234;47.446;21.636;2024-02-23T00:28:45;99576.56;;;9.35;73.85
79752;BME280;69234;47.446;21.636;2024-02-23T00:29:16;99568.13;;;9.29;73.53
79752;BME280;69234;47.446;21.636;2024-02-23T00:29:47;99566.84;;;9.34;73.77
79752;BME280;69234;47.446;21.636;2024-02-23T00:30:18;99566.84;;;9.34;74.00
79752;BME280;69234;47.446;21.636;2024-02-23T00:30:49;99568.69;;;9.33;73.42
79752;BME280;69234;47.446;21.636;2024-02-23T00:31:21;99560.66;;;9.33;73.71
79752;BME280;69234;47.446;21.636;2024-02-23T00:31:52;99567.56;;;9.36;72.78
79752;BME280;69234;47.446;21.636;2024-02-23T00:32:22;99571.22;;;9.35;73.21
79752;BME280;69234;47.446;21.636;2024-02-23T00:32:53;99570.38;;;9.34;73.84
79752;BME280;69234;47.446;21.636;2024-02-23T00:33:24;99572.09;;;9.35;73.61
79752;BME280;69234;47.446;21.636;2024-02-23T00:33:55;99572.22;;;9.34;73.07
79752;BME280;69234;47.446;21.636;2024-02-23T00:34:26;99574.75;;;9.35;73.06
79752;BME280;69234;47.446;21.636;2024-02-23T00:34:57;99573.88;;;9.35;73.29
79752;BME280;69234;47.446;21.636;2024-02-23T00:35:28;99569.41;;;9.35;73.54
79752;BME280;69234;47.446;21.636;2024-02-23T00:35:59;99571.22;;;9.35;73.50
79752;BME280;69234;47.446;21.636;2024-02-23T00:36:30;99562.50;;;9.33;74.23
79752;BME280;69234;47.446;21.636;2024-02-23T00:37:01;99570.38;;;9.34;73.32
79752;BME280;69234;47.446;21.636;2024-02-23T00:37:32;99565.84;;;9.35;73.36
79752;BME280;69234;47.446;21.636;2024-02-23T00:38:05;99567.69;;;9.34;74.26
79752;BME280;69234;47.446;21.636;2024-02-23T00:38:38;99566.13;;;9.32;73.42
79752;BME280;69234;47.446;21.636;2024-02-23T00:39:09;99567.97;;;9.31;73.65
79752;BME280;69234;47.446;21.636;2024-02-23T00:39:40;99574.06;;;9.33;73.39
79752;BME280;69234;47.446;21.636;2024-02-23T00:40:11;99575.88;;;9.33;73.72
79752;BME280;69234;47.446;21.636;2024-02-23T00:40:42;99566.44;;;9.28;73.77
79752;BME280;69234;47.446;21.636;2024-02-23T00:41:13;99550.38;;;9.28;74.11
79752;BME280;69234;47.446;21.636;2024-02-23T00:41:44;99556.56;;;9.29;74.15
79752;BME280;69234;47.446;21.636;2024-02-23T00:42:15;99555.41;;;9.32;73.32
79752;BME280;69234;47.446;21.636;2024-02-23T00:42:46;99551.22;;;9.29;73.69
79752;BME280;69234;47.446;21.636;2024-02-23T00:43:20;99563.44;;;9.32;73.08
79752;BME280;69234;47.446;21.636;2024-02-23T00:43:51;99557.81;;;9.35;73.35
79752;BME280;69234;47.446;21.636;2024-02-23T00:44:22;99560.22;;;9.38;73.39
79752;BME280;69234;47.446;21.636;2024-02-23T00:44:53;99556.84;;;9.36;73.67
79752;BME280;69234;47.446;21.636;2024-02-23T00:45:24;99561.22;;;9.37;72.90
79752;BME280;69234;47.446;21.636;2024-02-23T00:45:55;99554.16;;;9.36;73.51
79752;BME280;69234;47.446;21.636;2024-02-23T00:46:26;99552.16;;;9.38;72.83
79752;BME280;69234;47.446;21.636;2024-02-23T00:46:57;99548.09;;;9.34;73.35
79752;BME280;69234;47.446;21.636;2024-02-23T00:47:31;99555.00;;;9.36;73.37
79752;BME280;69234;47.446;21.636;2024-02-23T00:48:02;99562.03;;;9.37;73.48
79752;BME280;69234;47.446;21.636;2024-02-23T00:48:34;99550.66;;;9.35;72.77
79752;BME280;69234;47.446;21.636;2024-02-23T00:49:06;99557.53;;;9.38;73.29
79752;BME280;69234;47.446;21.636;2024-02-23T00:49:37;99552.16;;;9.38;73.86
79752;BME280;69234;47.446;21.636;2024-02-23T00:50:08;99556.84;;;9.36;73.04
79752;BME280;69234;47.446;21.636;2024-02-23T00:50:39;99561.91;;;9.39;73.03
79752;BME280;69234;47.446;21.636;2024-02-23T00:51:10;99559.53;;;9.36;72.24
79752;BME280;69234;47.446;21.636;2024-02-23T00:51:41;99549.50;;;9.38;73.01
79752;BME280;69234;47.446;21.636;2024-02-23T00:52:12;99550.47;;;9.37;72.55
79752;BME280;69234;47.446;21.636;2024-02-23T00:52:43;99557.25;;;9.41;72.80
79752;BME280;69234;47.446;21.636;2024-02-23T00:53:14;99558.66;;;9.45;72.83
79752;BME280;69234;47.446;21.636;2024-02-23T00:53:45;99559.63;;;9.44;72.10
79752;BME280;69234;47.446;21.636;2024-02-23T00:54:15;99556.97;;;9.44;72.48
79752;BME280;69234;47.446;21.636;2024-02-23T00:54:46;99555.97;;;9.45;72.06
79752;BME280;69234;47.446;21.636;2024-02-23T00:55:18;99559.34;;;9.47;71.86
79752;BME280;69234;47.446;21.636;2024-02-23T00:55:49;99558.34;;;9.48;71.50
79752;BME280;69234;47.446;21.636;2024-02-23T00:56:20;99544.97;;;9.48;72.53
79752;BME280;69234;47.446;21.636;2024-02-23T00:56:51;99553.16;;;9.46;72.81
79752;BME280;69234;47.446;21.636;2024-02-23T00:57:23;99551.59;;;9.44;73.02
79752;BME280;69234;47.446;21.636;2024-02-23T00:57:58;99557.81;;;9.44;72.80
79752;BME280;69234;47.446;21.636;2024-02-23T00:58:30;99542.44;;;9.46;72.55
79752;BME280;69234;47.446;21.636;2024-02-23T00:59:00;99554.00;;;9.47;71.67
79752;BME280;69234;47.446;21.636;2024-02-23T00:59:32;99545.25;;;9.45;72.87
79752;BME280;69234;47.446;21.636;2024-02-23T01:00:04;99547.78;;;9.46;73.09
79752;BME280;69234;47.446;21.636;2024-02-23T01:00:39;99535.81;;;9.41;72.54
79752;BME280;69234;47.446;21.636;2024-02-23T01:01:10;99542.44;;;9.46;71.40
79752;BME280;69234;47.446;21.636;2024-02-23T01:01:41;99540.59;;;9.47;72.73
79752;BME280;69234;47.446;21.636;2024-02-23T01:02:12;99544.97;;;9.48;71.89
79752;BME280;69234;47.446;21.636;2024-02-23T01:02:43;99539.75;;;9.46;72.98
79752;BME280;69234;47.446;21.636;2024-02-23T01:03:14;99536.22;;;9.46;72.65
79752;BME280;69234;47.446;21.636;2024-02-23T01:03:45;99542.56;;;9.45;72.21
79752;BME280;69234;47.446;21.636;2024-02-23T01:04:16;99544.28;;;9.46;72.25
79752;BME280;69234;47.446;21.636;2024-02-23T01:04:47;99538.75;;;9.47;72.40
79752;BME280;69234;47.446;21.636;2024-02-23T01:05:18;99543.28;;;9.47;72.81
79752;BME280;69234;47.446;21.636;2024-02-23T01:05:48;99548.63;;;9.47;73.03
79752;BME280;69234;47.446;21.636;2024-02-23T01:06:19;99541.44;;;9.47;72.21
79752;BME280;69234;47.446;21.636;2024-02-23T01:06:50;99548.75;;;9.45;73.40
79752;BME280;69234;47.446;21.636;2024-02-23T01:07:21;99541.59;;;9.46;72.67
79752;BME280;69234;47.446;21.636;2024-02-23T01:07:52;99549.63;;;9.46;72.77
79752;BME280;69234;47.446;21.636;2024-02-23T01:08:23;99546.94;;;9.46;71.65
79752;BME280;69234;47.446;21.636;2024-02-23T01:08:54;99545.94;;;9.47;71.72
79752;BME280;69234;47.446;21.636;2024-02-23T01:09:25;99537.34;;;9.43;72.88
79752;BME280;69234;47.446;21.636;2024-02-23T01:09:56;99535.34;;;9.45;71.60
79752;BME280;69234;47.446;21.636;2024-02-23T01:10:27;99550.59;;;9.45;71.17
79752;BME280;69234;47.446;21.636;2024-02-23T01:10:58;99535.34;;;9.45;71.78
79752;BME280;69234;47.446;21.636;2024-02-23T01:11:28;99543.56;;;9.44;72.26
79752;BME280;69234;47.446;21.636;2024-02-23T01:11:59;99547.25;;;9.43;72.72
79752;BME280;69234;47.446;21.636;2024-02-23T01:12:30;99549.47;;;9.47;72.12
79752;BME280;69234;47.446;21.636;2024-02-23T01:13:01;99541.88;;;9.43;71.71
79752;BME280;69234;47.446;21.636;2024-02-23T01:13:32;99538.91;;;9.46;72.94
79752;BME280;69234;47.446;21.636;2024-02-23T01:14:03;99541.03;;;9.42;71.83
79752;BME280;69234;47.446;21.636;2024-02-23T01:14:34;99542.72;;;9.43;71.81
79752;BME280;69234;47.446;21.636;2024-02-23T01:15:05;99548.63;;;9.47;71.52
79752;BME280;69234;47.446;21.636;2024-02-23T01:15:36;99545.78;;;9.48;72.46
79752;BME280;69234;47.446;21.636;2024-02-23T01:16:07;99536.50;;;9.43;72.72
79752;BME280;69234;47.446;21.636;2024-02-23T01:16:39;99543.56;;;9.44;72.58
79752;BME280;69234;47.446;21.636;2024-02-23T01:17:10;99533.13;;;9.41;72.39
79752;BME280;69234;47.446;21.636;2024-02-23T01:17:40;99546.94;;;9.46;72.06
79752;BME280;69234;47.446;21.636;2024-02-23T01:18:11;99542.44;;;9.46;72.10
79752;BME280;69234;47.446;21.636;2024-02-23T01:18:42;99542.44;;;9.46;71.92
79752;BME280;69234;47.446;21.636;2024-02-23T01:19:13;99552.00;;;9.49;71.38
79752;BME280;69234;47.446;21.636;2024-02-23T01:19:46;99539.75;;;9.46;72.57
79752;BME280;69234;47.446;21.636;2024-02-23T01:20:17;99551.31;;;9.47;71.22
79752;BME280;69234;47.446;21.636;2024-02-23T01:20:48;99544.97;;;9.48;72.01
79752;BME280;69234;47.446;21.636;2024-02-23T01:21:19;99551.16;;;9.48;72.08
79752;BME280;69234;47.446;21.636;2024-02-23T01:21:50;99552.88;;;9.49;72.08
79752;BME280;69234;47.446;21.636;2024-02-23T01:22:29;99545.78;;;9.48;71.55
79752;BME280;69234;47.446;21.636;2024-02-23T01:23:00;99546.63;;;9.49;71.96
79752;BME280;69234;47.446;21.636;2024-02-23T01:23:31;99562.72;;;9.49;71.43
79752;BME280;69234;47.446;21.636;2024-02-23T01:24:03;99557.34;;;9.49;71.85
79752;BME280;69234;47.446;21.636;2024-02-23T01:24:35;99547.63;;;9.48;72.14
79752;BME280;69234;47.446;21.636;2024-02-23T01:25:06;99543.00;;;9.50;71.46
79752;BME280;69234;47.446;21.636;2024-02-23T01:25:37;99542.00;;;9.51;70.94
79752;BME280;69234;47.446;21.636;2024-02-23T01:26:08;99548.06;;;9.53;71.25
79752;BME280;69234;47.446;21.636;2024-02-23T01:26:39;99545.38;;;9.53;71.08
79752;BME280;69234;47.446;21.636;2024-02-23T01:27:12;99538.19;;;9.44;71.97
79752;BME280;69234;47.446;21.636;2024-02-23T01:27:42;99543.00;;;9.50;71.53
79752;BME280;69234;47.446;21.636;2024-02-23T01:28:15;99546.63;;;9.49;72.36
79752;BME280;69234;47.446;21.636;2024-02-23T01:28:46;99549.19;;;9.50;72.00
79752;BME280;69234;47.446;21.636;2024-02-23T01:29:16;99539.47;;;9.49;71.98
79752;BME280;69234;47.446;21.636;2024-02-23T01:29:47;99541.16;;;9.50;72.18
79752;BME280;69234;47.446;21.636;2024-02-23T01:30:18;99535.63;;;9.52;71.67
79752;BME280;69234;47.446;21.636;2024-02-23T01:30:49;99540.69;;;9.55;70.78
79752;BME280;69234;47.446;21.636;2024-02-23T01:31:20;99532.94;;;9.52;71.06
79752;BME280;69234;47.446;21.636;2024-02-23T01:31:51;99530.25;;;9.52;71.04
79752;BME280;69234;47.446;21.636;2024-02-23T01:32:22;99530.56;;;9.49;71.18
79752;BME280;69234;47.446;21.636;2024-02-23T01:32:53;99546.22;;;9.53;71.28
79752;BME280;69234;47.446;21.636;2024-02-23T01:33:24;99540.03;;;9.53;72.05
79752;BME280;69234;47.446;21.636;2024-02-23T01:33:55;99543.66;;;9.52;71.70
79752;BME280;69234;47.446;21.636;2024-02-23T01:34:26;99546.22;;;9.53;71.05
79752;BME280;69234;47.446;21.636;2024-02-23T01:34:57;99541.69;;;9.54;72.09
79752;BME280;69234;47.446;21.636;2024-02-23T01:35:28;99540.88;;;9.53;71.77
79752;BME280;69234;47.446;21.636;2024-02-23T01:35:59;99547.06;;;9.54;71.36
79752;BME280;69234;47.446;21.636;2024-02-23T01:36:30;99545.50;;;9.51;72.22
79752;BME280;69234;47.446;21.636;2024-02-23T01:37:01;99543.66;;;9.52;71.76
79752;BME280;69234;47.446;21.636;2024-02-23T01:37:32;99545.38;;;9.53;71.26
79752;BME280;69234;47.446;21.636;2024-02-23T01:38:03;99543.53;;;9.53;71.16
79752;BME280;69234;47.446;21.636;2024-02-23T01:38:34;99540.31;;;9.50;72.46
79752;BME280;69234;47.446;21.636;2024-02-23T01:39:05;99537.06;;;9.46;72.05
79752;BME280;69234;47.446;21.636;2024-02-23T01:39:37;99548.19;;;9.51;72.29
79752;BME280;69234;47.446;21.636;2024-02-23T01:40:09;99543.81;;;9.50;71.16
79752;BME280;69234;47.446;21.636;2024-02-23T01:40:40;99552.44;;;9.54;72.27
79752;BME280;69234;47.446;21.636;2024-02-23T01:41:10;99555.09;;;9.54;71.28
79752;BME280;69234;47.446;21.636;2024-02-23T01:41:42;99560.47;;;9.54;71.27
79752;BME280;69234;47.446;21.636;2024-02-23T01:42:14;99555.94;;;9.55;72.13
79752;BME280;69234;47.446;21.636;2024-02-23T01:42:45;99560.31;;;9.56;72.53
79752;BME280;69234;47.446;21.636;2024-02-23T01:43:16;99551.72;;;9.52;71.73
79752;BME280;69234;47.446;21.636;2024-02-23T01:43:47;99549.19;;;9.50;71.42
79752;BME280;69234;47.446;21.636;2024-02-23T01:44:18;99556.09;;;9.53;72.29
79752;BME280;69234;47.446;21.636;2024-02-23T01:44:51;99543.53;;;9.53;71.29
79752;BME280;69234;47.446;21.636;2024-02-23T01:45:22;99549.59;;;9.56;71.89
79752;BME280;69234;47.446;21.636;2024-02-23T01:45:54;99549.75;;;9.54;71.63
79752;BME280;69234;47.446;21.636;2024-02-23T01:46:25;99540.31;;;9.50;70.71
79752;BME280;69234;47.446;21.636;2024-02-23T01:46:56;99547.06;;;9.54;72.09
79752;BME280;69234;47.446;21.636;2024-02-23T01:47:29;99559.34;;;9.57;71.82
79752;BME280;69234;47.446;21.636;2024-02-23T01:48:01;99542.00;;;9.51;71.07
79752;BME280;69234;47.446;21.636;2024-02-23T01:48:32;99540.69;;;9.55;71.50
79752;BME280;69234;47.446;21.636;2024-02-23T01:49:05;99553.97;;;9.57;71.50
79752;BME280;69234;47.446;21.636;2024-02-23T01:49:38;99544.94;;;9.58;70.46
79752;BME280;69234;47.446;21.636;2024-02-23T01:50:09;99537.63;;;9.60;71.23
79752;BME280;69234;47.446;21.636;2024-02-23T01:50:43;99542.41;;;9.56;70.64
79752;BME280;69234;47.446;21.636;2024-02-23T01:51:14;99551.13;;;9.58;71.10
79752;BME280;69234;47.446;21.636;2024-02-23T01:51:46;99544.66;;;9.61;71.60
79752;BME280;69234;47.446;21.636;2024-02-23T01:52:17;99535.06;;;9.58;71.23
79752;BME280;69234;47.446;21.636;2024-02-23T01:52:49;99543.81;;;9.60;71.33
79752;BME280;69234;47.446;21.636;2024-02-23T01:53:24;99540.41;;;9.58;72.02
79752;BME280;69234;47.446;21.636;2024-02-23T01:53:56;99545.78;;;9.58;71.11
79752;BME280;69234;47.446;21.636;2024-02-23T01:54:27;99537.63;;;9.60;70.77
79752;BME280;69234;47.446;21.636;2024-02-23T01:54:59;99540.41;;;9.58;71.06
79752;BME280;69234;47.446;21.636;2024-02-23T01:55:32;99546.34;;;9.62;71.01
79752;BME280;69234;47.446;21.636;2024-02-23T01:56:04;99539.41;;;9.59;72.02
79752;BME280;69234;47.446;21.636;2024-02-23T01:56:37;99540.13;;;9.61;71.32
79752;BME280;69234;47.446;21.636;2024-02-23T01:57:10;99545.50;;;9.61;71.43
79752;BME280;69234;47.446;21.636;2024-02-23T01:57:42;99545.50;;;9.61;71.05
79752;BME280;69234;47.446;21.636;2024-02-23T01:58:13;99549.72;;;9.64;71.60
79752;BME280;69234;47.446;21.636;2024-02-23T01:58:45;99544.38;;;9.64;71.67
79752;BME280;69234;47.446;21.636;2024-02-23T01:59:16;99551.41;;;9.65;71.61
79752;BME280;69234;47.446;21.636;2024-02-23T01:59:48;99548.88;;;9.63;70.93
79752;BME280;69234;47.446;21.636;2024-02-23T02:00:20;99545.50;;;9.61;72.22
79752;BME280;69234;47.446;21.636;2024-02-23T02:00:58;99549.00;;;9.62;71.95
79752;BME280;69234;47.446;21.636;2024-02-23T02:01:31;99553.81;;;9.58;71.59
79752;BME280;69234;47.446;21.636;2024-02-23T02:02:02;99560.75;;;9.61;71.03
79752;BME280;69234;47.446;21.636;2024-02-23T02:02:33;99554.38;;;9.62;71.71
79752;BME280;69234;47.446;21.636;2024-02-23T02:03:05;99561.59;;;9.61;71.94
79752;BME280;69234;47.446;21.636;2024-02-23T02:03:38;99549.19;;;9.60;71.04
79752;BME280;69234;47.446;21.636;2024-02-23T02:04:09;99559.91;;;9.60;72.02
79752;BME280;69234;47.446;21.636;2024-02-23T02:04:40;99558.19;;;9.59;71.71
79752;BME280;69234;47.446;21.636;2024-02-23T02:05:12;99557.91;;;9.62;71.25
79752;BME280;69234;47.446;21.636;2024-02-23T02:05:43;99560.75;;;9.61;71.13
79752;BME280;69234;47.446;21.636;2024-02-23T02:06:15;99556.22;;;9.61;71.11
79752;BME280;69234;47.446;21.636;2024-02-23T02:06:48;99549.59;;;9.56;71.75
79752;BME280;69234;47.446;21.636;2024-02-23T02:07:19;99552.53;;;9.62;71.46
79752;BME280;69234;47.446;21.636;2024-02-23T02:07:55;99557.22;;;9.60;71.92
79752;BME280;69234;47.446;21.636;2024-02-23T02:08:29;99554.53;;;9.60;71.13
79752;BME280;69234;47.446;21.636;2024-02-23T02:09:00;99562.28;;;9.63;71.83
79752;BME280;69234;47.446;21.636;2024-02-23T02:09:32;99546.88;;;9.65;71.43
79752;BME280;69234;47.446;21.636;2024-02-23T02:10:06;99548.88;;;9.63;71.47
79752;BME280;69234;47.446;21.636;2024-02-23T02:10:38;99555.94;;;9.64;71.96
79752;BME280;69234;47.446;21.636;2024-02-23T02:11:09;99562.97;;;9.65;71.86
79752;BME280;69234;47.446;21.636;2024-02-23T02:11:50;99546.50;;;9.60;72.76
79752;BME280;69234;47.446;21.636;2024-02-23T02:12:28;99551.00;;;9.60;72.98
79752;BME280;69234;47.446;21.636;2024-02-23T02:13:03;99555.66;;;9.58;72.80
79752;BME280;69234;47.446;21.636;2024-02-23T02:13:37;99558.19;;;9.59;72.58
79752;BME280;69234;47.446;21.636;2024-02-23T02:14:08;99551.00;;;9.60;72.53
79752;BME280;69234;47.446;21.636;2024-02-23T02:14:41;99554.53;;;9.60;72.38
79752;BME280;69234;47.446;21.636;2024-02-23T02:15:12;99558.19;;;9.59;72.23
79752;BME280;69234;47.446;21.636;2024-02-23T02:15:43;99564.41;;;9.60;72.46
79752;BME280;69234;47.446;21.636;2024-02-23T02:16:14;99552.97;;;9.58;71.90
79752;BME280;69234;47.446;21.636;2024-02-23T02:16:45;99551.84;;;9.60;71.58
79752;BME280;69234;47.446;21.636;2024-02-23T02:17:16;99547.34;;;9.61;71.05
79752;BME280;69234;47.446;21.636;2024-02-23T02:17:48;99551.00;;;9.60;71.25
79752;BME280;69234;47.446;21.636;2024-02-23T02:18:18;99552.81;;;9.59;71.71
79752;BME280;69234;47.446;21.636;2024-02-23T02:18:49;99557.06;;;9.62;71.00
79752;BME280;69234;47.446;21.636;2024-02-23T02:19:20;99551.13;;;9.58;70.91
79752;BME280;69234;47.446;21.636;2024-02-23T02:19:52;99545.94;;;9.57;71.23
79752;BME280;69234;47.446;21.636;2024-02-23T02:20:25;99554.53;;;9.60;70.79
79752;BME280;69234;47.446;21.636;2024-02-23T02:20:57;99552.81;;;9.59;70.62
79752;BME280;69234;47.446;21.636;2024-02-23T02:21:28;99549.19;;;9.60;71.61
79752;BME280;69234;47.446;21.636;2024-02-23T02:21:59;99548.19;;;9.61;71.50
79752;BME280;69234;47.446;21.636;2024-02-23T02:22:32;99557.06;;;9.62;70.80
79752;BME280;69234;47.446;21.636;2024-02-23T02:23:04;99551.69;;;9.62;70.85
79752;BME280;69234;47.446;21.636;2024-02-23T02:23:37;99557.91;;;9.62;70.40
79752;BME280;69234;47.446;21.636;2024-02-23T02:24:08;99562.41;;;9.62;71.67
79752;BME280;69234;47.446;21.636;2024-02-23T02:24:39;99552.81;;;9.59;71.66
79752;BME280;69234;47.446;21.636;2024-02-23T02:25:14;99561.59;;;9.61;70.78
79752;BME280;69234;47.446;21.636;2024-02-23T02:25:56;99566.66;;;9.64;71.21
79752;BME280;69234;47.446;21.636;2024-02-23T02:26:27;99556.78;;;9.65;71.16
79752;BME280;69234;47.446;21.636;2024-02-23T02:26:58;99557.63;;;9.65;69.86
79752;BME280;69234;47.446;21.636;2024-02-23T02:27:28;99550.13;;;9.59;71.62
79752;BME280;69234;47.446;21.636;2024-02-23T02:27:59;99555.09;;;9.64;70.76
79752;BME280;69234;47.446;21.636;2024-02-23T02:28:30;99549.19;;;9.60;71.46
79752;BME280;69234;47.446;21.636;2024-02-23T02:29:01;99557.63;;;9.65;71.32
79752;BME280;69234;47.446;21.636;2024-02-23T02:29:32;99557.91;;;9.62;70.63
79752;BME280;69234;47.446;21.636;2024-02-23T02:30:04;99552.81;;;9.59;71.01
79752;BME280;69234;47.446;21.636;2024-02-23T02:30:35;99551.56;;;9.63;69.55
79752;BME280;69234;47.446;21.636;2024-02-23T02:31:05;99550.28;;;9.67;69.57
79752;BME280;69234;47.446;21.636;2024-02-23T02:31:36;99555.66;;;9.67;70.25
79752;BME280;69234;47.446;21.636;2024-02-23T02:32:07;99559.16;;;9.68;70.24
79752;BME280;69234;47.446;21.636;2024-02-23T02:32:39;99553.66;;;9.69;69.86
79752;BME280;69234;47.446;21.636;2024-02-23T02:33:10;99557.31;;;9.68;71.00
79752;BME280;69234;47.446;21.636;2024-02-23T02:33:41;99554.53;;;9.70;70.40
79752;BME280;69234;47.446;21.636;2024-02-23T02:34:12;99546.88;;;9.65;71.34
79752;BME280;69234;47.446;21.636;2024-02-23T02:34:45;99555.66;;;9.67;70.80
79752;BME280;69234;47.446;21.636;2024-02-23T02:35:16;99556.63;;;9.66;70.28
79752;BME280;69234;47.446;21.636;2024-02-23T02:35:47;99554.94;;;9.65;70.71
79752;BME280;69234;47.446;21.636;2024-02-23T02:36:18;99546.06;;;9.65;71.22
79752;BME280;69234;47.446;21.636;2024-02-23T02:36:49;99543.53;;;9.63;70.16
79752;BME280;69234;47.446;21.636;2024-02-23T02:37:21;99553.69;;;9.60;71.29
79752;BME280;69234;47.446;21.636;2024-02-23T02:37:52;99550.56;;;9.64;70.85
79752;BME280;69234;47.446;21.636;2024-02-23T02:38:23;99552.25;;;9.65;70.75
79752;BME280;69234;47.446;21.636;2024-02-23T02:38:54;99552.41;;;9.64;70.96
79752;BME280;69234;47.446;21.636;2024-02-23T02:39:25;99554.25;;;9.63;71.11
79752;BME280;69234;47.446;21.636;2024-02-23T02:39:56;99550.56;;;9.64;70.38
79752;BME280;69234;47.446;21.636;2024-02-23T02:40:27;99554.94;;;9.65;69.96
79752;BME280;69234;47.446;21.636;2024-02-23T02:40:58;99559.28;;;9.66;70.29
79752;BME280;69234;47.446;21.636;2024-02-23T02:41:30;99553.81;;;9.68;69.56
79752;BME280;69234;47.446;21.636;2024-02-23T02:42:01;99554.66;;;9.68;69.82
79752;BME280;69234;47.446;21.636;2024-02-23T02:42:33;99557.50;;;9.67;70.26
79752;BME280;69234;47.446;21.636;2024-02-23T02:43:04;99542.09;;;9.59;69.60
79752;BME280;69234;47.446;21.636;2024-02-23T02:43:36;99562.69;;;9.68;69.69
79752;BME280;69234;47.446;21.636;2024-02-23T02:44:07;99563.53;;;9.69;70.41
79752;BME280;69234;47.446;21.636;2024-02-23T02:44:40;99564.38;;;9.69;70.83
79752;BME280;69234;47.446;21.636;2024-02-23T02:45:11;99566.22;;;9.69;70.43
79752;BME280;69234;47.446;21.636;2024-02-23T02:45:42;99558.16;;;9.69;70.24
79752;BME280;69234;47.446;21.636;2024-02-23T02:46:13;99554.25;;;9.63;71.00
79752;BME280;69234;47.446;21.636;2024-02-23T02:46:44;99560.16;;;9.67;70.32
79752;BME280;69234;47.446;21.636;2024-02-23T02:47:16;99564.97;;;9.63;70.66